Time;durP1;ratioP1;P1;durP2;ratioP2;P2;SDS_P1;SDS_P2;PMS_P1;PMS_P2;Temp;Humidity;BMP_temperature;BMP_pressure;BME280_temperature;BME280_humidity;BME280_pressure;Samples;Min_cycle;Max_cycle;Signal;HPM_P1;HPM_P2
2023/05/17 00:01:55;;;;;;;12.07;3.53;;;;;;;8.40;90.31;102416.72;5062748;28;20119;-54
2023/05/17 00:04:21;;;;;;;15.77;3.38;;;;;;;8.40;89.93;102419.38;5070208;28;20032;-56
2023/05/17 00:06:46;;;;;;;13.95;3.67;;;;;;;8.33;90.39;102416.97;5067128;28;20104;-53
2023/05/17 00:09:11;;;;;;;13.35;3.67;;;;;;;8.32;90.26;102417.03;5070234;28;20105;-55
2023/05/17 00:11:37;;;;;;;17.75;3.72;;;;;;;8.29;90.68;102415.41;5064570;28;20043;-53
2023/05/17 00:14:02;;;;;;;9.30;3.03;;;;;;;8.28;90.82;102415.47;5070266;28;20032;-54
2023/05/17 00:16:27;;;;;;;9.27;3.33;;;;;;;8.27;89.96;102426.97;5068816;28;20058;-53
2023/05/17 00:18:53;;;;;;;12.05;3.58;;;;;;;8.21;90.29;102428.09;5070365;28;20115;-53
2023/05/17 00:21:18;;;;;;;11.23;3.85;;;;;;;8.15;90.44;102417.75;5070135;28;20154;-53
2023/05/17 00:23:43;;;;;;;9.27;3.72;;;;;;;8.11;91.01;102418.78;5064300;28;20044;-54
2023/05/17 00:26:08;;;;;;;15.52;3.65;;;;;;;8.04;91.12;102428.75;5068014;28;20017;-53
2023/05/17 00:28:34;;;;;;;11.70;3.75;;;;;;;8.10;91.46;102425.88;5069602;28;20071;-53
2023/05/17 00:30:59;;;;;;;14.70;4.10;;;;;;;8.00;91.61;102423.66;5067007;28;20037;-53
2023/05/17 00:33:24;;;;;;;15.98;4.75;;;;;;;7.96;91.43;102420.28;5069887;28;20411;-53
2023/05/17 00:35:50;;;;;;;11.65;3.85;;;;;;;7.96;92.46;102418.50;5066211;28;20025;-54
2023/05/17 00:38:15;;;;;;;15.88;4.38;;;;;;;7.93;92.27;102425.69;5069868;28;20296;-54
2023/05/17 00:40:40;;;;;;;11.88;3.88;;;;;;;7.91;93.19;102422.22;5069476;28;20025;-53
2023/05/17 00:43:05;;;;;;;10.65;3.58;;;;;;;7.90;93.35;102415.25;5067828;28;20024;-54
2023/05/17 00:45:31;;;;;;;12.43;4.00;;;;;;;7.89;92.97;102419.69;5069770;28;20025;-54
2023/05/17 00:47:56;;;;;;;11.98;3.70;;;;;;;7.88;93.14;102415.28;5067212;28;20056;-53
2023/05/17 00:50:21;;;;;;;10.90;4.68;;;;;;;7.85;92.92;102417.22;5069440;28;20012;-54
2023/05/17 00:52:47;;;;;;;16.60;4.55;;;;;;;7.84;92.87;102415.47;5060359;28;20114;-53
2023/05/17 00:55:12;;;;;;;13.50;3.70;;;;;;;7.71;93.00;102407.16;5065401;28;21429;-53
2023/05/17 00:57:38;;;;;;;11.93;3.85;;;;;;;7.79;93.05;102423.59;5066682;28;20304;-53
2023/05/17 01:00:04;;;;;;;10.90;3.80;;;;;;;7.77;93.27;102420.16;5065656;28;20603;-53
2023/05/17 01:02:29;;;;;;;14.00;4.30;;;;;;;7.74;93.11;102417.63;5069835;28;20492;-53
2023/05/17 01:04:56;;;;;;;11.70;3.78;;;;;;;7.73;93.54;102414.13;5069824;28;20097;-53
2023/05/17 01:07:21;;;;;;;12.75;4.30;;;;;;;7.73;93.79;102421.22;5062226;28;20029;-55
2023/05/17 01:09:47;;;;;;;12.32;4.20;;;;;;;7.72;94.38;102419.47;5065873;28;20028;-53
2023/05/17 01:12:24;;;;;;;14.00;4.40;;;;;;;7.71;93.69;102420.38;5051710;28;20428;-54
2023/05/17 01:15:07;;;;;;;13.65;4.43;;;;;;;7.68;93.47;102415.22;5053299;28;20167;-53
2023/05/17 01:17:39;;;;;;;13.07;4.18;;;;;;;7.67;94.17;102419.63;5055073;28;20025;-54
2023/05/17 01:20:20;;;;;;;16.23;4.38;;;;;;;7.67;94.23;102416.16;5064581;28;20021;-57
2023/05/17 01:23:03;;;;;;;14.23;3.80;;;;;;;7.65;94.87;102415.34;5062603;28;20032;-54
2023/05/17 01:25:28;;;;;;;16.73;4.00;;;;;;;7.64;94.47;102410.97;5071002;28;20048;-53
2023/05/17 01:27:58;;;;;;;15.73;4.40;;;;;;;7.57;94.75;102408.56;5069821;28;20477;-54
2023/05/17 01:30:25;;;;;;;15.48;4.38;;;;;;;7.59;95.07;102419.06;5058349;28;20497;-54
2023/05/17 01:32:51;;;;;;;16.25;4.43;;;;;;;7.57;94.85;102429.72;5059184;28;20393;-54
2023/05/17 01:35:17;;;;;;;12.32;4.35;;;;;;;7.53;95.17;102427.28;5070935;28;20063;-54
2023/05/17 01:37:42;;;;;;;8.65;4.05;;;;;;;7.51;95.25;102429.97;5071953;28;20056;-55
2023/05/17 01:40:08;;;;;;;13.07;4.00;;;;;;;7.50;95.43;102427.38;5074441;28;20024;-57
2023/05/17 01:42:38;;;;;;;11.88;4.25;;;;;;;7.46;95.48;102424.00;5073941;28;20086;-57
2023/05/17 01:45:29;;;;;;;10.70;4.22;;;;;;;7.48;95.78;102419.50;5066550;28;20143;-55
2023/05/17 01:48:22;;;;;;;12.68;5.00;;;;;;;7.46;96.27;102415.19;5065644;28;20048;-57
2023/05/17 01:50:53;;;;;;;14.80;5.05;;;;;;;7.41;96.04;102418.00;5062606;28;20032;-56
2023/05/17 01:53:38;;;;;;;15.20;4.90;;;;;;;7.42;96.68;102419.72;5073853;28;20032;-55
2023/05/17 01:56:08;;;;;;;16.33;4.80;;;;;;;7.34;97.49;102413.88;5074116;28;20047;-54
2023/05/17 01:58:43;;;;;;;13.77;4.63;;;;;;;7.32;97.46;102407.78;5073879;28;20036;-53
2023/05/17 02:01:10;;;;;;;13.73;4.68;;;;;;;7.35;97.59;102423.53;5062054;28;20398;-57
2023/05/17 02:03:35;;;;;;;16.45;4.90;;;;;;;7.33;97.64;102418.31;5073189;28;20443;-54
2023/05/17 02:06:00;;;;;;;12.25;4.22;;;;;;;7.33;97.13;102415.66;5073808;28;20024;-57
2023/05/17 02:08:26;;;;;;;14.27;4.90;;;;;;;7.32;97.70;102421.84;5067032;28;20061;-57
2023/05/17 02:10:51;;;;;;;18.30;5.65;;;;;;;7.30;98.01;102418.41;5067380;28;20026;-56
2023/05/17 02:13:16;;;;;;;17.75;4.95;;;;;;;7.32;98.05;102421.84;5064480;28;20497;-57
2023/05/17 02:15:41;;;;;;;13.75;4.45;;;;;;;7.31;98.13;102417.50;5082163;28;20096;-56
2023/05/17 02:18:07;;;;;;;17.50;5.40;;;;;;;7.31;98.44;102420.16;5070243;28;20078;-54
2023/05/17 02:20:32;;;;;;;12.23;4.88;;;;;;;7.30;98.33;102430.78;5067911;28;20043;-57
2023/05/17 02:22:57;;;;;;;18.67;5.57;;;;;;;7.27;97.82;102430.88;5073273;28;20021;-55
2023/05/17 02:25:23;;;;;;;17.58;5.32;;;;;;;7.26;98.01;102426.50;5073858;28;20439;-57
2023/05/17 02:27:48;;;;;;;18.13;5.18;;;;;;;7.21;98.26;102413.47;5071283;28;20029;-57
2023/05/17 02:30:15;;;;;;;14.55;4.68;;;;;;;7.23;97.92;102419.56;5073571;28;20055;-56
2023/05/17 02:32:41;;;;;;;12.48;4.93;;;;;;;7.21;98.20;102411.69;5072922;28;20021;-56
2023/05/17 02:35:07;;;;;;;13.07;4.63;;;;;;;7.19;98.14;102426.75;5068434;28;20374;-57
2023/05/17 02:37:32;;;;;;;15.35;5.07;;;;;;;7.17;98.42;102418.00;5071721;28;20021;-56
2023/05/17 02:39:57;;;;;;;16.70;5.00;;;;;;;7.19;98.38;102421.47;5073907;28;20029;-56
2023/05/17 02:42:23;;;;;;;16.63;5.15;;;;;;;7.18;99.03;102422.38;5068148;28;20426;-56
2023/05/17 02:44:51;;;;;;;14.18;5.00;;;;;;;7.21;98.72;102426.66;5065419;28;20028;-56
2023/05/17 02:47:17;;;;;;;12.83;4.83;;;;;;;7.19;98.90;102434.69;5072445;28;20020;-53
2023/05/17 02:49:42;;;;;;;14.57;5.90;;;;;;;7.17;99.18;102436.50;5066298;28;20290;-53
2023/05/17 02:52:08;;;;;;;13.45;5.15;;;;;;;7.20;99.11;102435.53;5072296;28;20021;-53
2023/05/17 02:54:33;;;;;;;18.33;5.55;;;;;;;7.19;99.52;102439.97;5073057;28;20035;-53
2023/05/17 02:56:58;;;;;;;15.25;5.03;;;;;;;7.18;100.00;102443.53;5070344;28;20031;-55
2023/05/17 02:59:24;;;;;;;14.60;5.43;;;;;;;7.22;100.00;102439.84;5072663;28;20024;-54
2023/05/17 03:01:49;;;;;;;18.13;5.72;;;;;;;7.24;100.00;102442.41;5072387;28;20021;-53
2023/05/17 03:04:14;;;;;;;13.48;5.47;;;;;;;7.23;100.00;102448.66;5072609;28;20029;-54
2023/05/17 03:06:40;;;;;;;15.90;5.45;;;;;;;7.27;99.86;102449.38;5066617;28;20028;-54
2023/05/17 03:09:06;;;;;;;16.20;5.40;;;;;;;7.29;100.00;102455.47;5072437;28;20099;-53
2023/05/17 03:11:31;;;;;;;19.63;5.80;;;;;;;7.31;100.00;102456.28;5072375;28;20037;-53
2023/05/17 03:13:57;;;;;;;14.48;6.00;;;;;;;7.34;100.00;102456.16;5068366;28;20485;-54
2023/05/17 03:16:22;;;;;;;16.70;6.03;;;;;;;7.37;100.00;102459.53;5071888;28;20031;-53
2023/05/17 03:18:47;;;;;;;17.90;5.80;;;;;;;7.38;100.00;102453.34;5069973;28;20037;-53
2023/05/17 03:21:12;;;;;;;14.00;5.93;;;;;;;7.43;100.00;102463.75;5071668;28;20028;-53
2023/05/17 03:23:38;;;;;;;18.38;5.85;;;;;;;7.45;100.00;102469.00;5069902;28;20560;-55
2023/05/17 03:26:03;;;;;;;18.43;6.33;;;;;;;7.48;100.00;102459.16;5070011;28;20028;-53
2023/05/17 03:28:29;;;;;;;15.05;5.85;;;;;;;7.51;100.00;102466.09;5072175;28;20271;-56
2023/05/17 03:30:54;;;;;;;13.45;6.07;;;;;;;7.55;100.00;102468.56;5071912;28;20079;-54
2023/05/17 03:33:19;;;;;;;13.93;6.32;;;;;;;7.56;100.00;102470.31;5064984;28;20047;-53
2023/05/17 03:35:47;;;;;;;16.80;6.05;;;;;;;7.59;100.00;102470.19;5069612;28;20024;-53
2023/05/17 03:38:12;;;;;;;18.20;6.45;;;;;;;7.62;100.00;102466.56;5071761;28;20052;-53
2023/05/17 03:40:38;;;;;;;18.05;5.88;;;;;;;7.67;100.00;102476.97;5066768;28;20073;-53
2023/05/17 03:43:03;;;;;;;18.08;6.82;;;;;;;7.68;100.00;102476.06;5063400;28;20435;-53
2023/05/17 03:45:29;;;;;;;20.65;6.95;;;;;;;7.70;100.00;102471.56;5070270;28;20029;-53
2023/05/17 03:47:54;;;;;;;19.85;6.43;;;;;;;7.72;100.00;102475.84;5058609;28;20025;-53
2023/05/17 03:50:20;;;;;;;16.15;6.57;;;;;;;7.74;100.00;102479.34;5071600;28;20032;-54
2023/05/17 03:52:45;;;;;;;17.88;6.40;;;;;;;7.76;100.00;102471.31;5070339;28;20082;-56
2023/05/17 03:55:10;;;;;;;18.83;6.70;;;;;;;7.77;100.00;102473.91;5071498;28;20105;-56
2023/05/17 03:57:36;;;;;;;21.23;6.63;;;;;;;7.81;100.00;102474.66;5071973;28;20024;-55
2023/05/17 04:00:04;;;;;;;14.93;6.45;;;;;;;7.84;100.00;102486.91;5071150;28;20500;-56
2023/05/17 04:02:29;;;;;;;17.55;7.13;;;;;;;7.85;100.00;102489.50;5070769;28;20503;-57
2023/05/17 04:04:55;;;;;;;19.35;7.10;;;;;;;7.87;100.00;102486.78;5070031;28;20099;-57
2023/05/17 04:07:20;;;;;;;18.73;6.88;;;;;;;7.89;100.00;102485.81;5063384;28;20111;-54
2023/05/17 04:09:45;;;;;;;15.77;6.63;;;;;;;7.90;100.00;102489.31;5070969;28;20107;-53
2023/05/17 04:12:11;;;;;;;17.48;6.88;;;;;;;7.92;100.00;102488.31;5068928;28;20375;-54
2023/05/17 04:14:37;;;;;;;17.73;7.95;;;;;;;7.92;100.00;102488.31;5069977;28;20107;-53
2023/05/17 04:17:02;;;;;;;18.20;6.88;;;;;;;7.93;100.00;102490.06;5068873;28;20048;-54
2023/05/17 04:19:27;;;;;;;16.20;7.05;;;;;;;7.93;100.00;102495.34;5065325;28;20114;-54
2023/05/17 04:21:53;;;;;;;15.82;6.72;;;;;;;7.92;100.00;102493.59;5062272;28;20473;-54
2023/05/17 04:24:19;;;;;;;17.35;6.95;;;;;;;7.95;100.00;102498.78;5066977;28;20020;-54
2023/05/17 04:26:44;;;;;;;19.02;7.47;;;;;;;7.96;100.00;102497.03;5071541;28;20567;-55
2023/05/17 04:29:09;;;;;;;16.67;7.57;;;;;;;7.95;100.00;102496.13;5060299;28;20052;-55
2023/05/17 04:31:34;;;;;;;16.65;7.53;;;;;;;7.99;100.00;102503.97;5071422;28;20114;-54
2023/05/17 04:34:00;;;;;;;17.02;7.85;;;;;;;7.97;100.00;102506.66;5071247;28;20024;-57
2023/05/17 04:36:25;;;;;;;16.48;7.38;;;;;;;7.99;100.00;102504.81;5071428;28;20028;-57
2023/05/17 04:38:50;;;;;;;21.90;8.38;;;;;;;8.01;100.00;102513.56;5068856;28;20101;-56
2023/05/17 04:41:16;;;;;;;20.80;8.13;;;;;;;8.02;100.00;102517.06;5063908;28;20025;-54
2023/05/17 04:43:41;;;;;;;20.75;8.55;;;;;;;8.03;100.00;102518.81;5057269;28;20389;-56
2023/05/17 04:46:07;;;;;;;18.17;8.70;;;;;;;8.06;100.00;102526.59;5062731;28;20086;-54
2023/05/17 04:48:32;;;;;;;19.83;8.93;;;;;;;8.05;100.00;102524.91;5070492;28;20055;-56
2023/05/17 04:51:03;;;;;;;21.17;8.60;;;;;;;8.09;100.00;102526.50;5071305;28;20040;-55
2023/05/17 04:53:28;;;;;;;21.88;8.68;;;;;;;8.11;100.00;102535.22;5069884;28;20018;-55
2023/05/17 04:55:54;;;;;;;17.98;8.13;;;;;;;8.14;100.00;102525.41;5071103;28;20025;-54
2023/05/17 04:58:19;;;;;;;23.15;9.50;;;;;;;8.21;100.00;102527.78;5070843;28;20031;-56
2023/05/17 05:00:44;;;;;;;17.77;8.80;;;;;;;8.23;100.00;102540.06;5070989;28;20032;-57
2023/05/17 05:03:10;;;;;;;19.25;9.88;;;;;;;8.27;100.00;102535.50;5062465;28;20462;-55
2023/05/17 05:05:35;;;;;;;18.85;8.90;;;;;;;8.32;100.00;102537.03;5068436;28;20024;-54
2023/05/17 05:08:01;;;;;;;19.25;8.77;;;;;;;8.37;100.00;102541.28;5069546;28;20025;-54
2023/05/17 05:10:29;;;;;;;19.25;9.15;;;;;;;8.41;100.00;102540.22;5071078;28;20033;-56
2023/05/17 05:12:54;;;;;;;22.35;9.15;;;;;;;8.44;100.00;102543.69;5073664;28;20028;-57
2023/05/17 05:15:19;;;;;;;22.85;8.98;;;;;;;8.50;100.00;102543.41;5075067;28;20086;-57
2023/05/17 05:17:45;;;;;;;25.73;8.82;;;;;;;8.59;100.00;102552.75;5064163;28;20025;-56
2023/05/17 05:20:10;;;;;;;21.05;8.57;;;;;;;8.65;100.00;102556.97;5055776;28;20033;-55
2023/05/17 05:22:36;;;;;;;22.10;8.45;;;;;;;8.75;100.00;102558.28;5070532;28;20036;-57
2023/05/17 05:25:01;;;;;;;25.75;8.73;;;;;;;8.87;100.00;102551.63;5066695;28;20021;-57
2023/05/17 05:27:26;;;;;;;22.52;8.10;;;;;;;9.02;100.00;102561.56;5071340;28;20485;-57
2023/05/17 05:29:54;;;;;;;25.88;9.10;;;;;;;9.17;100.00;102561.84;5066948;28;20095;-55
2023/05/17 05:32:19;;;;;;;24.95;8.80;;;;;;;9.36;100.00;102564.53;5069076;28;20033;-58
2023/05/17 05:34:44;;;;;;;18.58;8.32;;;;;;;9.53;100.00;102563.81;5072844;28;20396;-58
2023/05/17 05:37:10;;;;;;;17.88;8.02;;;;;;;9.62;100.00;102569.56;5073393;28;20028;-55
2023/05/17 05:39:35;;;;;;;22.80;7.97;;;;;;;9.72;100.00;102570.00;5074299;28;20028;-54
2023/05/17 05:42:00;;;;;;;21.73;7.25;;;;;;;9.81;100.00;102574.91;5063166;28;20497;-57
2023/05/17 05:44:26;;;;;;;20.55;7.00;;;;;;;9.91;100.00;102566.50;5074391;28;20028;-56
2023/05/17 05:46:51;;;;;;;19.10;7.43;;;;;;;10.08;100.00;102573.72;5074126;28;20044;-54
2023/05/17 05:49:16;;;;;;;22.60;6.80;;;;;;;10.24;100.00;102576.50;5074123;28;20063;-54
2023/05/17 05:51:42;;;;;;;20.95;7.50;;;;;;;10.35;100.00;102582.19;5072782;28;20035;-56
2023/05/17 05:54:07;;;;;;;18.58;6.63;;;;;;;10.42;100.00;102583.59;5074420;28;20081;-56
2023/05/17 05:56:32;;;;;;;22.38;6.38;;;;;;;10.50;100.00;102586.75;5065174;28;20048;-55
2023/05/17 05:58:58;;;;;;;20.38;6.63;;;;;;;10.65;100.00;102582.50;5073511;28;20154;-57
2023/05/17 06:01:24;;;;;;;18.33;7.47;;;;;;;10.77;100.00;102596.97;5073717;28;20161;-57
2023/05/17 06:03:49;;;;;;;18.02;7.53;;;;;;;10.96;99.65;102591.63;5073711;28;20078;-58
2023/05/17 06:06:17;;;;;;;19.17;7.03;;;;;;;11.16;98.68;102597.69;5049385;28;20041;-58
2023/05/17 06:08:44;;;;;;;26.92;7.43;;;;;;;11.30;98.81;102592.53;5066382;28;20032;-58
2023/05/17 06:11:10;;;;;;;22.23;7.13;;;;;;;11.48;96.75;102604.03;5061035;28;20492;-57
2023/05/17 06:13:35;;;;;;;15.05;5.90;;;;;;;11.59;95.40;102609.66;5071174;28;20117;-58
2023/05/17 06:16:00;;;;;;;19.75;6.03;;;;;;;11.71;94.68;102616.13;5063589;28;20037;-55
2023/05/17 06:18:26;;;;;;;15.93;5.82;;;;;;;11.87;94.13;102609.97;5064363;28;20024;-55
2023/05/17 06:20:51;;;;;;;21.60;6.07;;;;;;;11.95;91.50;102615.78;5057659;28;20098;-58
2023/05/17 06:23:16;;;;;;;16.60;5.57;;;;;;;12.02;90.03;102623.38;5064074;28;20036;-57
2023/05/17 06:25:41;;;;;;;19.20;6.18;;;;;;;12.18;89.60;102625.19;5059272;28;20114;-57
2023/05/17 06:28:08;;;;;;;14.70;5.00;;;;;;;12.29;86.81;102625.47;5064954;28;20039;-57
2023/05/17 06:30:33;;;;;;;23.80;7.03;;;;;;;12.40;84.95;102633.69;5065467;28;20055;-56
2023/05/17 06:32:59;;;;;;;25.65;5.65;;;;;;;12.44;82.93;102629.09;5067162;28;20028;-54
2023/05/17 06:35:24;;;;;;;13.05;4.97;;;;;;;12.67;82.74;102632.25;5067991;28;20087;-58
2023/05/17 06:37:49;;;;;;;15.85;4.13;;;;;;;12.90;82.26;102621.09;5063089;28;20016;-57
2023/05/17 06:40:15;;;;;;;13.25;4.40;;;;;;;13.07;78.79;102620.16;5059239;28;20029;-55
2023/05/17 06:42:40;;;;;;;17.00;4.38;;;;;;;13.30;77.79;102624.09;5065459;28;20166;-58
2023/05/17 06:45:06;;;;;;;16.23;4.93;;;;;;;13.58;78.51;102626.97;5064763;28;20362;-54
2023/05/17 06:47:31;;;;;;;19.20;4.97;;;;;;;13.84;78.13;102625.34;5062245;28;20040;-58
2023/05/17 06:49:56;;;;;;;17.83;4.83;;;;;;;14.13;77.66;102625.34;5055954;28;20029;-58
2023/05/17 06:52:22;;;;;;;18.20;4.17;;;;;;;14.38;73.55;102629.97;5056777;28;20302;-58
2023/05/17 06:54:47;;;;;;;16.65;3.47;;;;;;;14.64;70.55;102632.78;5058890;28;20299;-58
2023/05/17 06:57:12;;;;;;;16.40;4.10;;;;;;;14.84;66.89;102628.81;5064867;28;20045;-56
2023/05/17 06:59:37;;;;;;;17.58;3.55;;;;;;;14.95;65.68;102632.50;5065861;28;20485;-58
2023/05/17 07:02:03;;;;;;;15.40;3.30;;;;;;;15.11;64.07;102631.47;5057498;28;20045;-55
2023/05/17 07:04:28;;;;;;;12.98;3.05;;;;;;;15.32;61.93;102627.34;5062872;28;20047;-58
2023/05/17 07:06:54;;;;;;;12.50;2.90;;;;;;;15.38;58.17;102631.41;5063469;28;20397;-57
2023/05/17 07:09:20;;;;;;;14.07;3.65;;;;;;;15.35;57.57;102634.28;5052702;28;20299;-58
2023/05/17 07:11:45;;;;;;;16.17;3.30;;;;;;;15.30;58.01;102642.63;5060815;28;20115;-61
2023/05/17 07:14:10;;;;;;;31.83;4.67;;;;;;;15.36;56.38;102639.53;5060063;28;20063;-60
2023/05/17 07:16:35;;;;;;;12.68;2.53;;;;;;;15.32;55.88;102646.09;5054061;28;20314;-59
2023/05/17 07:19:01;;;;;;;12.18;2.88;;;;;;;15.29;56.16;102643.59;5062759;28;20485;-58
2023/05/17 07:21:26;;;;;;;17.60;4.00;;;;;;;15.35;54.83;102645.00;5056411;28;20561;-59
2023/05/17 07:23:51;;;;;;;14.63;3.38;;;;;;;15.38;55.57;102646.63;5051800;28;20043;-58
2023/05/17 07:26:20;;;;;;;15.77;3.00;;;;;;;15.70;56.54;102649.75;5050826;28;20386;-61
2023/05/17 07:28:45;;;;;;;12.82;2.95;;;;;;;15.89;54.60;102649.34;5066357;28;20025;-61
2023/05/17 07:31:11;;;;;;;8.27;2.90;;;;;;;16.06;53.41;102654.38;5059184;28;20025;-61
2023/05/17 07:33:36;;;;;;;11.38;3.33;;;;;;;16.22;53.08;102651.47;5070466;28;20039;-58
2023/05/17 07:36:02;;;;;;;11.75;2.92;;;;;;;16.50;54.18;102659.31;5056812;28;20032;-58
2023/05/17 07:38:27;;;;;;;12.43;2.83;;;;;;;16.60;52.95;102655.88;5057284;28;20060;-59
2023/05/17 07:40:52;;;;;;;11.77;2.72;;;;;;;16.85;50.29;102661.25;5060568;28;20025;-58
2023/05/17 07:43:18;;;;;;;16.70;4.60;;;;;;;17.01;49.38;102659.16;5054654;28;20115;-59
2023/05/17 07:45:43;;;;;;;10.43;2.97;;;;;;;17.06;48.19;102661.50;5053401;28;20462;-58
2023/05/17 07:48:08;;;;;;;13.57;2.70;;;;;;;17.29;49.63;102663.28;5055081;28;20040;-59
2023/05/17 07:50:33;;;;;;;12.23;2.35;;;;;;;17.57;49.85;102653.94;5053241;28;20094;-59
2023/05/17 07:52:59;;;;;;;12.43;2.80;;;;;;;17.67;48.53;102666.66;5053814;28;20420;-59
2023/05/17 07:55:24;;;;;;;10.00;2.78;;;;;;;17.64;47.15;102666.91;5053648;28;20282;-59
2023/05/17 07:57:51;;;;;;;10.02;3.08;;;;;;;17.87;48.35;102659.75;5053648;28;20017;-59
2023/05/17 08:00:18;;;;;;;11.02;2.63;;;;;;;18.21;48.05;102665.16;5056681;28;20509;-58
2023/05/17 08:02:43;;;;;;;13.73;3.05;;;;;;;18.17;46.62;102658.28;5056563;28;20111;-59
2023/05/17 08:05:09;;;;;;;16.15;3.35;;;;;;;18.69;47.75;102662.13;5051702;28;20116;-59
2023/05/17 08:07:34;;;;;;;14.27;3.83;;;;;;;18.85;49.07;102664.41;5056987;28;20025;-59
2023/05/17 08:10:00;;;;;;;11.82;3.60;;;;;;;18.93;47.10;102669.19;5054205;28;20035;-59
2023/05/17 08:12:25;;;;;;;10.98;3.38;;;;;;;18.63;46.99;102671.53;5067740;28;20028;-59
2023/05/17 08:14:50;;;;;;;10.15;3.03;;;;;;;18.46;47.03;102669.41;5054499;28;20460;-58
2023/05/17 08:17:16;;;;;;;13.80;3.13;;;;;;;18.24;46.79;102668.44;5049931;28;20036;-58
2023/05/17 08:19:41;;;;;;;10.95;3.03;;;;;;;18.02;47.16;102671.13;5054157;28;20087;-58
2023/05/17 08:22:06;;;;;;;14.93;3.10;;;;;;;18.00;48.44;102671.28;5054122;28;20033;-57
2023/05/17 08:24:32;;;;;;;13.30;3.10;;;;;;;17.90;47.38;102678.31;5051595;28;20036;-56
2023/05/17 08:26:57;;;;;;;13.38;3.17;;;;;;;17.88;48.42;102677.59;5052321;28;20177;-55
2023/05/17 08:29:22;;;;;;;11.40;3.22;;;;;;;17.94;46.83;102674.44;5047806;28;20436;-55
2023/05/17 08:31:48;;;;;;;9.52;2.67;;;;;;;18.00;46.34;102681.16;5053111;28;20024;-56
2023/05/17 08:34:13;;;;;;;16.10;3.40;;;;;;;18.03;46.43;102671.00;5054025;28;20029;-59
2023/05/17 08:36:38;;;;;;;16.55;3.55;;;;;;;18.22;46.46;102673.09;5055014;28;20028;-58
2023/05/17 08:39:04;;;;;;;11.13;3.08;;;;;;;18.49;47.00;102670.00;5052267;28;20025;-59
2023/05/17 08:41:30;;;;;;;11.10;2.55;;;;;;;18.74;43.16;102673.38;5055870;28;20102;-57
2023/05/17 08:43:57;;;;;;;9.48;2.42;;;;;;;18.76;40.91;102670.56;5053832;28;20462;-59
2023/05/17 08:46:25;;;;;;;8.80;2.30;;;;;;;19.03;41.49;102668.31;5057519;28;20097;-59
2023/05/17 08:48:52;;;;;;;10.30;2.63;;;;;;;19.42;44.51;102670.44;5056814;28;20037;-59
2023/05/17 08:51:18;;;;;;;10.85;2.92;;;;;;;19.56;40.34;102674.63;5053707;28;20332;-56
2023/05/17 08:53:46;;;;;;;8.75;2.28;;;;;;;19.93;39.20;102669.63;5054271;28;20020;-58
2023/05/17 08:56:14;;;;;;;10.68;2.47;;;;;;;20.15;39.95;102667.72;5058784;28;20063;-58
2023/05/17 08:58:42;;;;;;;9.02;2.42;;;;;;;20.28;37.85;102678.28;5059728;28;20036;-59
2023/05/17 09:01:08;;;;;;;9.57;2.30;;;;;;;20.51;38.13;102670.81;5061842;28;20093;-58
2023/05/17 09:03:35;;;;;;;10.88;2.50;;;;;;;20.48;38.65;102679.19;5055959;28;20452;-58
2023/05/17 09:06:01;;;;;;;9.65;2.53;;;;;;;20.60;35.14;102675.41;5059067;28;20505;-56
2023/05/17 09:08:29;;;;;;;8.45;2.17;;;;;;;20.73;34.30;102669.75;5047599;28;20112;-57
2023/05/17 09:10:58;;;;;;;9.68;2.22;;;;;;;20.82;34.48;102670.78;5057684;28;20113;-58
2023/05/17 09:13:24;;;;;;;7.30;2.10;;;;;;;20.98;36.02;102672.91;5054125;28;20059;-58
2023/05/17 09:15:49;;;;;;;7.00;1.90;;;;;;;21.15;34.04;102682.13;5057266;28;20085;-59
2023/05/17 09:18:15;;;;;;;7.80;2.20;;;;;;;21.45;32.98;102667.63;5059092;28;20020;-58
2023/05/17 09:20:40;;;;;;;6.75;1.90;;;;;;;21.66;33.45;102663.91;5071271;28;20043;-58
2023/05/17 09:23:12;;;;;;;8.05;2.20;;;;;;;21.72;33.84;102666.88;5054202;28;20025;-59
2023/05/17 09:25:37;;;;;;;10.35;2.20;;;;;;;21.80;32.96;102666.16;5066016;28;20074;-57
2023/05/17 09:28:10;;;;;;;8.15;2.28;;;;;;;22.02;33.28;102661.38;5062442;28;20032;-56
2023/05/17 09:30:38;;;;;;;13.35;2.60;;;;;;;21.97;33.38;102664.50;5060896;28;20480;-59
2023/05/17 09:33:06;;;;;;;8.23;2.37;;;;;;;22.09;34.20;102667.88;5076326;28;20031;-56
2023/05/17 09:35:31;;;;;;;13.00;2.40;;;;;;;21.84;31.76;102674.81;5072541;28;20328;-57
2023/05/17 09:38:12;;;;;;;9.93;2.28;;;;;;;21.96;33.21;102673.63;5075874;28;20437;-56
2023/05/17 09:40:39;;;;;;;7.53;2.25;;;;;;;22.06;30.96;102671.72;5064020;28;20393;-56
2023/05/17 09:43:05;;;;;;;9.02;2.03;;;;;;;22.20;31.54;102669.53;5056097;28;20047;-54
2023/05/17 09:45:35;;;;;;;11.68;2.70;;;;;;;22.46;32.84;102664.28;5055954;28;20553;-58
2023/05/17 09:48:17;;;;;;;9.35;2.53;;;;;;;22.95;34.17;102659.38;5057132;28;20059;-58
2023/05/17 09:50:44;;;;;;;10.02;2.47;;;;;;;22.70;31.86;102659.16;5060282;28;20024;-56
2023/05/17 09:53:24;;;;;;;11.80;2.72;;;;;;;23.10;33.46;102648.88;5056713;28;20025;-56
2023/05/17 09:55:53;;;;;;;8.70;1.95;;;;;;;23.25;31.13;102660.84;5057969;28;20078;-58
2023/05/17 09:58:18;;;;;;;7.03;2.03;;;;;;;23.37;28.79;102664.16;5053559;28;20025;-55
2023/05/17 10:00:47;;;;;;;5.90;1.98;;;;;;;23.38;29.19;102667.72;5056483;28;20032;-55
2023/05/17 10:03:12;;;;;;;6.00;2.05;;;;;;;23.29;28.97;102661.38;5055515;28;20059;-56
2023/05/17 10:05:42;;;;;;;10.63;2.33;;;;;;;23.35;29.62;102662.59;5059701;28;20412;-58
2023/05/17 10:08:12;;;;;;;9.30;2.00;;;;;;;23.73;31.04;102661.38;5060621;28;20680;-56
2023/05/17 10:10:38;;;;;;;9.23;2.78;;;;;;;23.31;31.64;102663.94;5066123;28;20115;-55
2023/05/17 10:13:05;;;;;;;8.77;2.10;;;;;;;23.31;30.63;102662.06;5060113;28;20128;-56
2023/05/17 10:15:32;;;;;;;8.35;2.28;;;;;;;23.28;31.56;102662.38;5055994;28;20529;-56
2023/05/17 10:17:58;;;;;;;10.75;2.40;;;;;;;23.22;30.85;102665.75;5053944;28;20052;-58
2023/05/17 10:20:25;;;;;;;11.27;2.20;;;;;;;23.03;32.04;102669.44;5069757;28;20469;-58
2023/05/17 10:22:51;;;;;;;6.55;1.88;;;;;;;23.03;32.72;102672.13;5066217;28;20029;-56
2023/05/17 10:25:17;;;;;;;7.60;2.15;;;;;;;22.76;31.83;102667.66;5068311;28;20124;-55
2023/05/17 10:27:42;;;;;;;8.88;2.33;;;;;;;22.78;31.82;102661.06;5062006;28;20032;-56
2023/05/17 10:30:10;;;;;;;9.30;2.45;;;;;;;22.92;32.59;102659.69;5062647;28;20144;-58
2023/05/17 10:32:35;;;;;;;7.40;2.13;;;;;;;22.61;31.46;102659.22;5064953;28;20033;-55
2023/05/17 10:35:03;;;;;;;8.30;2.40;;;;;;;22.15;32.16;102664.59;5066517;28;20049;-56
2023/05/17 10:37:29;;;;;;;7.75;2.08;;;;;;;22.35;31.93;102657.25;5068293;28;20032;-57
2023/05/17 10:39:55;;;;;;;7.57;2.30;;;;;;;22.76;30.51;102654.13;5067084;28;20523;-58
2023/05/17 10:42:21;;;;;;;6.18;1.90;;;;;;;22.63;31.27;102652.66;5064231;28;20519;-59
2023/05/17 10:44:47;;;;;;;9.10;2.28;;;;;;;22.53;30.47;102659.97;5062487;28;20040;-56
2023/05/17 10:47:14;;;;;;;8.38;2.30;;;;;;;22.60;31.15;102660.19;5067005;28;20073;-57
2023/05/17 10:49:40;;;;;;;7.53;2.20;;;;;;;23.14;29.97;102650.25;5060290;28;20044;-58
2023/05/17 10:52:17;;;;;;;6.60;2.05;;;;;;;23.06;30.36;102651.03;5064227;28;20033;-56
2023/05/17 10:54:44;;;;;;;6.40;1.92;;;;;;;23.08;29.14;102640.91;5059706;28;20033;-57
2023/05/17 10:57:21;;;;;;;12.13;2.20;;;;;;;23.36;30.61;102639.91;5058245;28;20025;-57
2023/05/17 11:00:01;;;;;;;8.88;2.15;;;;;;;23.34;32.21;102642.78;5060844;28;20056;-57
2023/05/17 11:02:27;;;;;;;7.50;1.90;;;;;;;23.15;29.38;102643.84;5060248;28;20044;-55
2023/05/17 11:04:55;;;;;;;9.55;2.30;;;;;;;23.43;29.12;102644.56;5062329;28;20044;-56
2023/05/17 11:07:30;;;;;;;7.80;2.05;;;;;;;23.49;29.37;102639.50;5070226;28;20040;-55
2023/05/17 11:09:58;;;;;;;4.93;1.88;;;;;;;23.70;28.54;102642.69;5064130;28;20626;-61
2023/05/17 11:12:29;;;;;;;43.13;4.93;;;;;;;23.69;28.19;102640.13;5056694;28;20508;-61
2023/05/17 11:14:55;;;;;;;9.32;2.05;;;;;;;23.78;28.61;102628.28;5059074;28;20032;-61
2023/05/17 11:17:24;;;;;;;11.70;2.17;;;;;;;23.86;27.96;102633.81;5070937;28;20021;-61
2023/05/17 11:19:53;;;;;;;6.72;1.75;;;;;;;23.83;27.12;102640.41;5063917;28;20457;-61